createdAt,value
2022-07-29T00:01:45.648Z,101022.66
2022-07-29T00:04:12.759Z,101020.59
2022-07-29T00:06:39.703Z,101022.84
2022-07-29T00:09:06.359Z,101020.22
2022-07-29T00:11:32.939Z,101015.78
2022-07-29T00:13:59.665Z,101017.56
2022-07-29T00:16:26.203Z,101016.38
2022-07-29T00:18:52.837Z,100998.56
2022-07-29T00:21:19.386Z,101000.63
2022-07-29T00:23:45.932Z,100992.53
2022-07-29T00:26:12.473Z,100991.81
2022-07-29T00:28:39.071Z,100996.25
2022-07-29T00:31:05.711Z,100994.78
2022-07-29T00:33:32.398Z,100992.53
2022-07-29T00:35:58.936Z,100986.88
2022-07-29T00:38:25.621Z,100983.78
2022-07-29T00:40:52.199Z,100981.81
2022-07-29T00:43:18.894Z,100980.84
2022-07-29T00:45:45.777Z,100967.09
2022-07-29T00:48:12.400Z,100972.25
2022-07-29T00:50:38.992Z,100968.47
2022-07-29T00:53:07.122Z,100964.09
2022-07-29T00:55:33.945Z,100964.94
2022-07-29T00:58:00.784Z,100958.50
2022-07-29T01:00:29.054Z,100955.03
2022-07-29T01:02:55.797Z,100950.25
2022-07-29T01:05:24.213Z,100957.50
2022-07-29T01:07:53.291Z,100965.53
2022-07-29T01:10:20.711Z,100955.91
2022-07-29T01:12:48.980Z,100960.34
2022-07-29T01:15:15.885Z,100957.72
2022-07-29T01:18:14.736Z,100954.63
2022-07-29T01:21:03.612Z,100953.66
2022-07-29T01:23:48.625Z,100942.50
2022-07-29T01:26:20.294Z,100933.81
2022-07-29T01:28:47.234Z,100933.56
2022-07-29T01:31:17.813Z,100934.69
2022-07-29T01:33:56.214Z,100926.75
2022-07-29T01:36:22.788Z,100924.91
2022-07-29T01:38:54.998Z,100929.00
2022-07-29T01:41:22.318Z,100926.00
2022-07-29T01:44:00.520Z,100918.72
2022-07-29T01:46:38.293Z,100925.53
2022-07-29T01:49:08.241Z,100919.72
2022-07-29T01:51:41.112Z,100928.38
2022-07-29T01:54:17.920Z,100918.44
2022-07-29T01:56:46.274Z,100932.03
2022-07-29T01:59:13.396Z,100930.53
2022-07-29T02:01:42.050Z,100927.00
2022-07-29T02:04:10.931Z,100923.88
2022-07-29T02:06:39.422Z,100914.59
2022-07-29T02:09:08.548Z,100920.63
2022-07-29T02:11:36.578Z,100918.22
2022-07-29T02:14:04.920Z,100903.84
2022-07-29T02:16:33.307Z,100900.69
2022-07-29T02:19:01.873Z,100902.03
2022-07-29T02:21:29.190Z,100905.03
2022-07-29T02:23:57.028Z,100901.13
2022-07-29T02:26:25.439Z,100907.34
2022-07-29T02:28:53.496Z,100904.78
2022-07-29T02:31:22.754Z,100903.66
2022-07-29T02:33:50.030Z,100901.38
2022-07-29T02:36:17.105Z,100904.13
2022-07-29T02:38:53.717Z,100904.09
2022-07-29T02:41:49.710Z,100908.78
2022-07-29T02:44:17.896Z,100914.44
2022-07-29T02:46:50.734Z,100905.53
2022-07-29T02:49:26.514Z,100902.97
2022-07-29T02:51:59.054Z,100912.59
2022-07-29T02:54:31.404Z,100906.22
2022-07-29T02:56:59.816Z,100906.94
2022-07-29T02:59:28.655Z,100904.91
2022-07-29T03:01:56.458Z,100904.06
2022-07-29T03:04:25.227Z,100896.44
2022-07-29T03:06:53.434Z,100901.88
2022-07-29T03:09:20.623Z,100901.25
2022-07-29T03:11:50.541Z,100910.44
2022-07-29T03:14:18.718Z,100902.06
2022-07-29T03:16:46.043Z,100905.66
2022-07-29T03:19:12.876Z,100902.25
2022-07-29T03:21:39.855Z,100901.22
2022-07-29T03:24:12.511Z,100903.44
2022-07-29T03:26:39.275Z,100908.03
2022-07-29T03:29:05.910Z,100902.94
2022-07-29T03:31:33.732Z,100907.44
2022-07-29T03:34:00.873Z,100905.56
2022-07-29T03:36:27.514Z,100908.38
2022-07-29T03:38:54.326Z,100898.81
2022-07-29T03:41:22.980Z,100899.16
2022-07-29T03:43:50.811Z,100897.78
2022-07-29T03:46:17.733Z,100886.97
2022-07-29T03:48:47.533Z,100880.44
2022-07-29T03:51:14.430Z,100881.22
2022-07-29T03:53:41.093Z,100887.31
2022-07-29T03:56:08.292Z,100876.44
2022-07-29T03:58:35.572Z,100877.13
2022-07-29T04:01:02.210Z,100879.03
2022-07-29T04:03:28.826Z,100878.72
2022-07-29T04:05:59.767Z,100883.47
2022-07-29T04:08:26.621Z,100878.22
2022-07-29T04:10:53.513Z,100869.06
2022-07-29T04:13:20.935Z,100876.66
2022-07-29T04:15:47.536Z,100865.13
2022-07-29T04:18:14.135Z,100874.06
2022-07-29T04:20:40.647Z,100867.22
2022-07-29T04:23:07.272Z,100870.75
2022-07-29T04:25:34.049Z,100874.84
2022-07-29T04:28:04.011Z,100874.22
2022-07-29T04:30:31.573Z,100868.63
2022-07-29T04:32:58.218Z,100869.22
2022-07-29T04:35:24.910Z,100874.41
2022-07-29T04:37:51.583Z,100871.63
2022-07-29T04:40:18.346Z,100876.78
2022-07-29T04:42:47.294Z,100877.06
2022-07-29T04:45:14.835Z,100872.81
2022-07-29T04:47:42.632Z,100871.88
2022-07-29T04:50:09.701Z,100870.41
2022-07-29T04:52:36.413Z,100872.31
2022-07-29T04:55:04.331Z,100871.09
2022-07-29T04:57:30.896Z,100869.66
2022-07-29T04:59:57.548Z,100869.94
2022-07-29T05:02:24.256Z,100866.78
2022-07-29T05:04:50.951Z,100871.69
2022-07-29T05:07:17.934Z,100869.31
2022-07-29T05:09:44.519Z,100872.72
2022-07-29T05:12:11.128Z,100879.22
2022-07-29T05:14:37.777Z,100880.16
2022-07-29T05:17:04.329Z,100888.75
2022-07-29T05:19:30.924Z,100888.75
2022-07-29T05:21:57.571Z,100878.25
2022-07-29T05:24:24.193Z,100872.16
2022-07-29T05:26:50.954Z,100871.31
2022-07-29T05:29:44.754Z,100875.97
2022-07-29T05:32:05.040Z,100883.78
2022-07-29T05:34:32.196Z,100880.38
2022-07-29T05:36:59.028Z,100888.53
2022-07-29T05:39:47.474Z,100878.75
2022-07-29T05:42:12.208Z,100893.50
2022-07-29T05:44:39.156Z,100887.56
2022-07-29T05:47:06.191Z,100887.19
2022-07-29T05:49:32.965Z,100879.75
2022-07-29T05:51:59.754Z,100887.41
2022-07-29T05:54:26.735Z,100877.63
2022-07-29T05:56:53.417Z,100873.09
2022-07-29T05:59:19.952Z,100878.59
2022-07-29T06:01:46.673Z,100881.44
2022-07-29T06:04:13.791Z,100891.38
2022-07-29T06:06:40.664Z,100885.84
2022-07-29T06:09:12.084Z,100884.97
2022-07-29T06:11:39.682Z,100878.88
2022-07-29T06:14:06.201Z,100877.75
2022-07-29T06:16:32.893Z,100871.06
2022-07-29T06:18:59.817Z,100865.53
2022-07-29T06:21:26.570Z,100874.91
2022-07-29T06:23:53.126Z,100872.63
2022-07-29T06:26:19.742Z,100880.19
2022-07-29T06:28:57.560Z,100879.66
2022-07-29T06:31:24.198Z,100885.97
2022-07-29T06:33:51.086Z,100885.66
2022-07-29T06:36:17.772Z,100884.06
2022-07-29T06:38:50.443Z,100883.44
2022-07-29T06:41:18.227Z,100888.97
2022-07-29T06:43:52.166Z,100888.75
2022-07-29T06:46:21.977Z,100890.88
2022-07-29T06:48:48.893Z,100893.69
2022-07-29T06:51:16.274Z,100895.19
2022-07-29T06:54:00.423Z,100889.22
2022-07-29T06:56:30.111Z,100888.34
2022-07-29T06:58:56.773Z,100881.78
2022-07-29T07:01:23.394Z,100875.88
2022-07-29T07:03:53.215Z,100872.91
2022-07-29T07:06:19.818Z,100855.88
2022-07-29T07:08:46.468Z,100867.56
2022-07-29T07:11:13.174Z,100857.53
2022-07-29T07:13:42.139Z,100858.75
2022-07-29T07:16:08.698Z,100853.78
2022-07-29T07:18:35.300Z,100852.75
2022-07-29T07:21:02.006Z,100846.31
2022-07-29T07:23:28.520Z,100855.84
2022-07-29T07:25:55.137Z,100854.94
2022-07-29T07:28:25.053Z,100856.88
2022-07-29T07:30:52.344Z,100853.31
2022-07-29T07:33:19.077Z,100851.81
2022-07-29T07:35:46.441Z,100853.28
2022-07-29T07:38:13.421Z,100857.03
2022-07-29T07:40:40.095Z,100868.53
2022-07-29T07:43:06.987Z,100879.38
2022-07-29T07:45:34.077Z,100883.25
2022-07-29T07:48:00.839Z,100881.19
2022-07-29T07:50:27.718Z,100877.09
2022-07-29T07:52:58.527Z,100877.53
2022-07-29T07:55:25.571Z,100882.34
2022-07-29T07:57:52.153Z,100876.75
2022-07-29T08:00:18.751Z,100866.28
2022-07-29T08:02:46.216Z,100869.47
2022-07-29T08:05:17.666Z,100868.97
2022-07-29T08:07:47.783Z,100870.47
2022-07-29T08:10:37.107Z,100865.44
2022-07-29T08:13:04.978Z,100866.03
2022-07-29T08:15:31.493Z,100850.16
2022-07-29T08:17:58.212Z,100848.66
2022-07-29T08:20:25.153Z,100844.78
2022-07-29T08:22:52.151Z,100853.53
2022-07-29T08:25:21.321Z,100848.09
2022-07-29T08:27:48.761Z,100834.88
2022-07-29T08:30:16.444Z,100840.06
2022-07-29T08:32:53.592Z,100836.75
2022-07-29T08:35:21.922Z,100842.78
2022-07-29T08:37:48.745Z,100829.97
2022-07-29T08:40:15.519Z,100831.19
2022-07-29T08:42:42.139Z,100834.81
2022-07-29T08:45:09.228Z,100832.88
2022-07-29T08:47:40.447Z,100834.22
2022-07-29T08:50:08.448Z,100839.19
2022-07-29T08:52:37.112Z,100833.53
2022-07-29T08:55:04.935Z,100837.78
2022-07-29T08:57:31.890Z,100823.91
2022-07-29T09:00:06.239Z,100827.72
2022-07-29T09:02:41.302Z,100826.59
2022-07-29T09:05:08.395Z,100822.03
2022-07-29T09:07:36.548Z,100827.59
2022-07-29T09:10:04.905Z,100813.03
2022-07-29T09:12:37.853Z,100822.19
2022-07-29T09:15:05.053Z,100819.03
2022-07-29T09:17:50.820Z,100817.56
2022-07-29T09:20:18.979Z,100820.63
2022-07-29T09:22:50.127Z,100810.56
2022-07-29T09:25:35.721Z,100813.03
2022-07-29T09:28:09.945Z,100812.41
2022-07-29T09:30:36.787Z,100809.34
2022-07-29T09:33:04.027Z,100812.19
2022-07-29T09:35:31.551Z,100804.00
2022-07-29T09:37:58.320Z,100802.41
2022-07-29T09:40:26.684Z,100792.84
2022-07-29T09:42:57.927Z,100794.63
2022-07-29T09:45:33.281Z,100799.22
2022-07-29T09:48:01.521Z,100793.69
2022-07-29T09:50:38.597Z,100802.97
2022-07-29T09:53:05.292Z,100800.19
2022-07-29T09:55:31.831Z,100795.09
2022-07-29T09:58:17.630Z,100795.31
2022-07-29T10:00:47.021Z,100793.59
2022-07-29T10:03:14.325Z,100797.66
2022-07-29T10:05:50.507Z,100799.41
2022-07-29T10:08:25.635Z,100789.03
2022-07-29T10:10:52.280Z,100787.94
2022-07-29T10:13:18.949Z,100789.38
2022-07-29T10:15:46.849Z,100784.63
2022-07-29T10:18:14.392Z,100788.59
2022-07-29T10:20:41.374Z,100786.06
2022-07-29T10:23:08.002Z,100779.84
2022-07-29T10:25:34.615Z,100791.09
2022-07-29T10:28:01.181Z,100784.00
2022-07-29T10:30:27.842Z,100772.78
2022-07-29T10:33:13.228Z,100771.06
2022-07-29T10:35:49.371Z,100772.91
2022-07-29T10:38:27.275Z,100773.59
2022-07-29T10:41:23.599Z,100766.13
2022-07-29T10:43:52.615Z,100769.69
2022-07-29T10:46:21.531Z,100761.16
2022-07-29T10:49:10.077Z,100760.09
2022-07-29T10:51:58.239Z,100758.88
2022-07-29T10:54:34.997Z,100750.16
2022-07-29T10:57:14.982Z,100748.81
2022-07-29T10:59:44.593Z,100757.38
2022-07-29T11:02:41.975Z,100746.34
2022-07-29T11:08:20.297Z,100747.31
2022-07-29T11:10:52.388Z,100745.03
2022-07-29T11:13:56.927Z,100749.47
2022-07-29T11:16:25.210Z,100742.06
2022-07-29T11:19:10.826Z,100749.22
2022-07-29T11:24:33.357Z,100741.88
2022-07-29T11:27:13.886Z,100734.78
2022-07-29T11:29:56.643Z,100746.44
2022-07-29T11:32:24.976Z,100738.75
2022-07-29T11:35:17.483Z,100729.41
2022-07-29T11:37:55.897Z,100726.22
2022-07-29T11:40:24.597Z,100720.53
2022-07-29T11:42:52.420Z,100725.47
2022-07-29T11:45:42.131Z,100728.41
2022-07-29T11:48:31.323Z,100720.56
2022-07-29T11:50:54.977Z,100714.38
2022-07-29T11:53:21.834Z,100718.72
2022-07-29T11:55:57.479Z,100728.25
2022-07-29T11:58:26.018Z,100721.84
2022-07-29T12:00:55.687Z,100716.63
2022-07-29T12:03:35.138Z,100720.06
2022-07-29T12:06:02.429Z,100724.66
2022-07-29T12:08:29.101Z,100719.72
2022-07-29T12:10:55.833Z,100714.94
2022-07-29T12:13:22.769Z,100713.41
2022-07-29T12:16:04.075Z,100716.78
2022-07-29T12:18:33.225Z,100712.00
2022-07-29T12:21:03.942Z,100719.78
2022-07-29T12:23:35.126Z,100706.25
2022-07-29T12:26:07.204Z,100715.06
2022-07-29T12:28:40.103Z,100706.22
2022-07-29T12:31:08.261Z,100706.53
2022-07-29T12:33:35.993Z,100706.13
2022-07-29T12:36:07.505Z,100701.41
2022-07-29T12:38:37.767Z,100702.03
2022-07-29T12:41:04.936Z,100696.22
2022-07-29T12:43:31.872Z,100698.47
2022-07-29T12:45:58.541Z,100696.91
2022-07-29T12:48:36.299Z,100694.09
2022-07-29T12:51:04.049Z,100694.69
2022-07-29T12:53:31.089Z,100695.78
2022-07-29T12:55:58.208Z,100698.09
2022-07-29T12:58:30.895Z,100690.72
2022-07-29T13:01:06.831Z,100696.28
2022-07-29T13:03:57.123Z,100693.63
2022-07-29T13:06:41.634Z,100700.25
2022-07-29T13:09:14.423Z,100694.06
2022-07-29T13:11:48.616Z,100698.19
2022-07-29T13:14:31.571Z,100695.25
2022-07-29T13:17:14.497Z,100689.97
2022-07-29T13:19:42.743Z,100694.69
2022-07-29T13:22:10.301Z,100689.97
2022-07-29T13:24:47.087Z,100698.09
2022-07-29T13:27:18.192Z,100691.94
2022-07-29T13:29:45.027Z,100686.16
2022-07-29T13:32:12.892Z,100685.59
2022-07-29T13:34:39.530Z,100683.50
2022-07-29T13:37:07.925Z,100681.94
2022-07-29T13:39:34.769Z,100676.38
2022-07-29T13:42:02.110Z,100678.91
2022-07-29T13:44:28.742Z,100675.91
2022-07-29T13:46:55.389Z,100667.28
2022-07-29T13:49:22.323Z,100671.34
2022-07-29T13:51:50.008Z,100676.94
2022-07-29T13:54:16.780Z,100673.53
2022-07-29T13:56:46.300Z,100677.66
2022-07-29T13:59:13.164Z,100663.88
2022-07-29T14:01:42.593Z,100666.06
2022-07-29T14:04:09.990Z,100667.28
2022-07-29T14:06:45.006Z,100666.38
2022-07-29T14:09:12.137Z,100663.66
2022-07-29T14:11:39.471Z,100671.38
2022-07-29T14:14:06.182Z,100667.25
2022-07-29T14:16:32.762Z,100665.19
2022-07-29T14:19:00.477Z,100662.84
2022-07-29T14:21:27.068Z,100662.56
2022-07-29T14:23:55.553Z,100656.13
2022-07-29T14:26:24.200Z,100659.00
2022-07-29T14:28:53.677Z,100655.31
2022-07-29T14:31:20.233Z,100649.25
2022-07-29T14:33:49.268Z,100657.72
2022-07-29T14:36:16.364Z,100662.81
2022-07-29T14:38:43.010Z,100654.59
2022-07-29T14:41:09.632Z,100643.41
2022-07-29T14:43:36.241Z,100653.25
2022-07-29T14:46:08.178Z,100644.06
2022-07-29T14:48:35.208Z,100640.88
2022-07-29T14:51:04.693Z,100647.06
2022-07-29T14:53:31.824Z,100638.63
2022-07-29T14:56:06.221Z,100643.09
2022-07-29T14:58:51.636Z,100642.41
2022-07-29T15:01:18.736Z,100638.00
2022-07-29T15:03:45.379Z,100626.91
2022-07-29T15:06:12.318Z,100627.69
2022-07-29T15:08:41.428Z,100629.63
2022-07-29T15:11:08.054Z,100639.47
2022-07-29T15:13:35.010Z,100630.28
2022-07-29T15:16:03.434Z,100632.00
2022-07-29T15:18:30.010Z,100629.63
2022-07-29T15:20:56.573Z,100631.69
2022-07-29T15:23:23.370Z,100627.63
2022-07-29T15:25:49.955Z,100625.41
2022-07-29T15:28:16.502Z,100624.59
2022-07-29T15:30:43.167Z,100624.59
2022-07-29T15:33:10.491Z,100617.09
2022-07-29T15:35:39.944Z,100614.72
2022-07-29T15:38:07.517Z,100618.16
2022-07-29T15:40:34.328Z,100619.25
2022-07-29T15:43:06.732Z,100612.47
2022-07-29T15:45:40.426Z,100612.34
2022-07-29T15:48:08.121Z,100606.69
2022-07-29T15:50:34.989Z,100613.47
2022-07-29T15:53:02.152Z,100613.03
2022-07-29T15:55:28.715Z,100603.19
2022-07-29T15:58:00.330Z,100615.41
2022-07-29T16:00:27.327Z,100604.16
2022-07-29T16:02:53.865Z,100605.50
2022-07-29T16:05:20.494Z,100598.06
2022-07-29T16:07:47.107Z,100595.00
2022-07-29T16:10:13.781Z,100595.16
2022-07-29T16:12:40.349Z,100591.75
2022-07-29T16:15:10.491Z,100598.34
2022-07-29T16:17:37.943Z,100592.75
2022-07-29T16:20:05.869Z,100586.50
2022-07-29T16:22:32.568Z,100582.72
2022-07-29T16:25:00.849Z,100584.31
2022-07-29T16:27:35.335Z,100588.06
2022-07-29T16:30:05.325Z,100588.53
2022-07-29T16:32:31.904Z,100581.66
2022-07-29T16:34:58.682Z,100579.97
2022-07-29T16:37:25.318Z,100575.75
2022-07-29T16:39:56.592Z,100581.88
2022-07-29T16:42:44.317Z,100577.97
2022-07-29T16:45:10.034Z,100584.66
2022-07-29T16:47:37.189Z,100584.84
2022-07-29T16:50:04.836Z,100578.81
2022-07-29T16:52:31.465Z,100570.88
2022-07-29T16:54:58.084Z,100572.59
2022-07-29T16:57:24.620Z,100560.63
2022-07-29T16:59:51.603Z,100559.41
2022-07-29T17:02:18.287Z,100557.41
2022-07-29T17:04:44.927Z,100562.44
2022-07-29T17:07:11.828Z,100564.78
2022-07-29T17:09:38.571Z,100560.84
2022-07-29T17:12:05.342Z,100557.47
2022-07-29T17:14:32.188Z,100560.63
2022-07-29T17:17:03.279Z,100557.78
2022-07-29T17:19:31.614Z,100562.44
2022-07-29T17:22:06.400Z,100568.28
2022-07-29T17:24:35.830Z,100564.91
2022-07-29T17:27:02.458Z,100563.25
2022-07-29T17:29:29.033Z,100564.53
2022-07-29T17:31:55.608Z,100565.88
2022-07-29T17:34:22.280Z,100564.91
2022-07-29T17:36:48.963Z,100562.19
2022-07-29T17:39:15.544Z,100566.34
2022-07-29T17:41:42.409Z,100569.69
2022-07-29T17:44:09.516Z,100563.91
2022-07-29T17:46:36.276Z,100564.25
2022-07-29T17:49:03.329Z,100561.28
2022-07-29T17:51:30.315Z,100556.44
2022-07-29T17:53:58.240Z,100559.53
2022-07-29T17:56:25.101Z,100558.13
2022-07-29T17:58:51.674Z,100553.13
2022-07-29T18:01:18.299Z,100557.78
2022-07-29T18:03:45.502Z,100562.97
2022-07-29T18:06:12.120Z,100559.09
2022-07-29T18:08:39.408Z,100554.88
2022-07-29T18:11:06.441Z,100558.00
2022-07-29T18:13:33.340Z,100563.34
2022-07-29T18:16:00.695Z,100558.56
2022-07-29T18:18:27.677Z,100559.63
2022-07-29T18:20:54.335Z,100552.34
2022-07-29T18:23:21.304Z,100552.56
2022-07-29T18:25:47.972Z,100558.38
2022-07-29T18:28:14.701Z,100566.53
2022-07-29T18:30:41.595Z,100571.75
2022-07-29T18:33:22.881Z,100578.03
2022-07-29T18:35:50.557Z,100586.50
2022-07-29T18:38:17.757Z,100586.16
2022-07-29T18:40:45.743Z,100586.69
2022-07-29T18:43:12.776Z,100579.38
2022-07-29T18:45:39.745Z,100581.75
2022-07-29T18:48:08.412Z,100593.03
2022-07-29T18:50:39.733Z,100593.84
2022-07-29T18:53:06.292Z,100592.13
2022-07-29T18:55:32.927Z,100588.00
2022-07-29T18:57:59.598Z,100598.28
2022-07-29T19:00:26.947Z,100595.72
2022-07-29T19:02:53.689Z,100600.94
2022-07-29T19:05:20.689Z,100600.81
2022-07-29T19:07:47.226Z,100601.78
2022-07-29T19:10:14.069Z,100605.00
2022-07-29T19:13:00.628Z,100603.41
2022-07-29T19:15:27.372Z,100612.41
2022-07-29T19:17:56.645Z,100607.28
2022-07-29T19:20:27.311Z,100609.47
2022-07-29T19:22:56.213Z,100606.13
2022-07-29T19:25:23.296Z,100608.00
2022-07-29T19:27:50.034Z,100605.69
2022-07-29T19:30:16.661Z,100608.41
2022-07-29T19:32:43.249Z,100606.31
2022-07-29T19:35:25.361Z,100601.81
2022-07-29T19:37:52.586Z,100608.84
2022-07-29T19:40:19.152Z,100604.63
2022-07-29T19:42:46.164Z,100612.25
2022-07-29T19:45:12.806Z,100609.03
2022-07-29T19:47:39.448Z,100603.06
2022-07-29T19:50:06.802Z,100610.56
2022-07-29T19:52:33.551Z,100599.34
2022-07-29T19:55:05.285Z,100605.31
2022-07-29T19:57:35.993Z,100604.84
2022-07-29T20:00:08.108Z,100602.84
2022-07-29T20:02:38.146Z,100604.84
2022-07-29T20:05:04.966Z,100611.47
2022-07-29T20:07:31.584Z,100601.25
2022-07-29T20:09:58.221Z,100593.84
2022-07-29T20:12:25.182Z,100597.19
2022-07-29T20:14:51.893Z,100598.91
2022-07-29T20:17:22.488Z,100593.19
2022-07-29T20:19:49.779Z,100592.94
2022-07-29T20:22:21.036Z,100593.19
2022-07-29T20:24:48.254Z,100595.16
2022-07-29T20:27:14.835Z,100606.38
2022-07-29T20:29:41.837Z,100602.28
2022-07-29T20:32:10.869Z,100603.97
2022-07-29T20:34:37.484Z,100604.88
2022-07-29T20:37:04.092Z,100606.16
2022-07-29T20:39:30.762Z,100600.28
2022-07-29T20:41:57.875Z,100598.31
2022-07-29T20:44:24.660Z,100599.63
2022-07-29T20:46:51.418Z,100606.00
2022-07-29T20:49:18.156Z,100604.00
2022-07-29T20:51:44.751Z,100604.72
2022-07-29T20:54:11.895Z,100598.75
2022-07-29T20:56:38.719Z,100595.38
2022-07-29T20:59:05.323Z,100598.34
2022-07-29T21:01:31.963Z,100607.44
2022-07-29T21:03:58.718Z,100600.09
2022-07-29T21:06:25.603Z,100600.91
2022-07-29T21:08:52.353Z,100603.91
2022-07-29T21:11:43.321Z,100599.50
2022-07-29T21:14:06.485Z,100599.34
2022-07-29T21:16:33.865Z,100602.50
2022-07-29T21:19:02.021Z,100605.47
2022-07-29T21:21:28.588Z,100600.34
2022-07-29T21:23:55.175Z,100604.91
2022-07-29T21:26:21.765Z,100601.50
2022-07-29T21:28:50.596Z,100598.09
2022-07-29T21:31:17.401Z,100603.91
2022-07-29T21:33:45.973Z,100607.91
2022-07-29T21:36:46.492Z,100608.91
2022-07-29T21:39:00.777Z,100601.22
2022-07-29T21:41:27.381Z,100607.75
2022-07-29T21:43:54.694Z,100602.94
2022-07-29T21:46:24.990Z,100603.94
2022-07-29T21:48:51.865Z,100603.22
2022-07-29T21:51:18.532Z,100612.00
2022-07-29T21:53:45.163Z,100602.81
2022-07-29T21:56:14.902Z,100606.34
2022-07-29T21:58:43.232Z,100610.50
2022-07-29T22:01:10.150Z,100601.78
2022-07-29T22:03:36.818Z,100612.56
2022-07-29T22:06:03.490Z,100611.16
2022-07-29T22:08:30.115Z,100609.19
2022-07-29T22:10:56.726Z,100609.19
2022-07-29T22:13:23.306Z,100600.38
2022-07-29T22:15:49.902Z,100605.22
2022-07-29T22:18:20.818Z,100606.50
2022-07-29T22:20:48.509Z,100608.34
2022-07-29T22:23:16.547Z,100604.34
2022-07-29T22:25:43.196Z,100602.63
2022-07-29T22:28:09.754Z,100600.69
2022-07-29T22:30:36.400Z,100604.38
2022-07-29T22:33:03.011Z,100594.41
2022-07-29T22:35:29.602Z,100594.94
2022-07-29T22:37:56.174Z,100594.72
2022-07-29T22:40:22.827Z,100589.47
2022-07-29T22:42:57.583Z,100583.63
2022-07-29T22:45:24.252Z,100586.44
2022-07-29T22:47:55.938Z,100586.13
2022-07-29T22:50:24.676Z,100587.31
2022-07-29T22:52:51.346Z,100575.34
2022-07-29T22:55:17.994Z,100582.22
2022-07-29T22:57:44.760Z,100578.69
2022-07-29T23:00:11.815Z,100571.69
2022-07-29T23:02:38.403Z,100575.34
2022-07-29T23:05:05.180Z,100577.41
2022-07-29T23:07:33.204Z,100573.16
2022-07-29T23:09:59.836Z,100574.00
2022-07-29T23:12:26.398Z,100568.72
2022-07-29T23:14:53.049Z,100567.72
2022-07-29T23:17:19.646Z,100575.69
2022-07-29T23:19:46.426Z,100573.28
2022-07-29T23:22:13.018Z,100578.94
2022-07-29T23:24:39.662Z,100572.31
2022-07-29T23:27:07.563Z,100576.25
2022-07-29T23:29:36.791Z,100579.94
2022-07-29T23:32:05.534Z,100587.13
2022-07-29T23:34:32.229Z,100581.19
2022-07-29T23:36:59.206Z,100588.00
2022-07-29T23:39:25.990Z,100596.53
2022-07-29T23:41:52.604Z,100605.94
2022-07-29T23:44:19.157Z,100605.47
2022-07-29T23:46:45.841Z,100612.00
2022-07-29T23:49:13.681Z,100610.25
2022-07-29T23:51:40.364Z,100609.16
2022-07-29T23:54:06.901Z,100608.34
2022-07-29T23:56:33.645Z,100619.34
2022-07-29T23:59:00.239Z,100623.91
